sensor_id;sensor_type;location;lat;lon;timestamp;pressure;altitude;pressure_sealevel;temperature;humidity
72525;BME280;60547;48.502;8.996;2022-12-07T00:00:53;97988.75;;;3.02;89.92
72525;BME280;60547;48.502;8.996;2022-12-07T00:03:18;97978.94;;;3.01;89.90
72525;BME280;60547;48.502;8.996;2022-12-07T00:05:44;97977.72;;;2.95;89.79
72525;BME280;60547;48.502;8.996;2022-12-07T00:08:09;97983.28;;;3.05;89.83
72525;BME280;60547;48.502;8.996;2022-12-07T00:10:35;97995.47;;;3.08;90.12
72525;BME280;60547;48.502;8.996;2022-12-07T00:13:00;97991.13;;;3.07;89.80
72525;BME280;60547;48.502;8.996;2022-12-07T00:15:26;97986.41;;;3.04;89.66
72525;BME280;60547;48.502;8.996;2022-12-07T00:17:51;97984.47;;;3.08;89.79
72525;BME280;60547;48.502;8.996;2022-12-07T00:20:16;97980.88;;;3.00;90.16
72525;BME280;60547;48.502;8.996;2022-12-07T00:22:42;97995.09;;;3.13;89.74
72525;BME280;60547;48.502;8.996;2022-12-07T00:25:07;97986.81;;;3.09;89.60
72525;BME280;60547;48.502;8.996;2022-12-07T00:27:33;97971.91;;;3.07;89.87
72525;BME280;60547;48.502;8.996;2022-12-07T00:29:58;97984.88;;;3.10;89.75
72525;BME280;60547;48.502;8.996;2022-12-07T00:32:23;97963.59;;;2.96;89.17
72525;BME280;60547;48.502;8.996;2022-12-07T00:34:49;97987.63;;;3.10;89.30
72525;BME280;60547;48.502;8.996;2022-12-07T00:37:14;97986.81;;;3.09;89.91
72525;BME280;60547;48.502;8.996;2022-12-07T00:39:40;97980.91;;;3.04;90.16
72525;BME280;60547;48.502;8.996;2022-12-07T00:42:05;97978.16;;;3.04;89.65
72525;BME280;60547;48.502;8.996;2022-12-07T00:44:30;97969.91;;;3.04;90.18
72525;BME280;60547;48.502;8.996;2022-12-07T00:46:56;97970.72;;;3.08;89.52
72525;BME280;60547;48.502;8.996;2022-12-07T00:49:21;97967.53;;;2.99;89.92
72525;BME280;60547;48.502;8.996;2022-12-07T00:51:50;97967.53;;;2.99;90.24
72525;BME280;60547;48.502;8.996;2022-12-07T00:54:15;97967.91;;;2.97;90.46
72525;BME280;60547;48.502;8.996;2022-12-07T00:56:41;97973.84;;;3.03;90.10
72525;BME280;60547;48.502;8.996;2022-12-07T00:59:06;97971.09;;;3.03;90.13
72525;BME280;60547;48.502;8.996;2022-12-07T01:01:35;97969.50;;;3.02;90.22
72525;BME280;60547;48.502;8.996;2022-12-07T01:04:01;97976.59;;;3.03;89.86
72525;BME280;60547;48.502;8.996;2022-12-07T01:06:28;97979.34;;;3.03;90.39
72525;BME280;60547;48.502;8.996;2022-12-07T01:08:54;97974.59;;;3.00;90.10
72525;BME280;60547;48.502;8.996;2022-12-07T01:11:23;97973.03;;;2.99;90.80
72525;BME280;60547;48.502;8.996;2022-12-07T01:13:50;97975.38;;;2.97;90.56
72525;BME280;60547;48.502;8.996;2022-12-07T01:16:17;97967.53;;;2.99;90.83
72525;BME280;60547;48.502;8.996;2022-12-07T01:18:45;97977.34;;;3.00;90.36
72525;BME280;60547;48.502;8.996;2022-12-07T01:21:17;97969.06;;;2.92;90.63
72525;BME280;60547;48.502;8.996;2022-12-07T01:23:44;97968.31;;;2.96;90.70
72525;BME280;60547;48.502;8.996;2022-12-07T01:26:11;97987.56;;;2.99;90.09
72525;BME280;60547;48.502;8.996;2022-12-07T01:28:37;97975.78;;;2.99;90.93
72525;BME280;60547;48.502;8.996;2022-12-07T01:31:05;97985.56;;;2.96;90.86
72525;BME280;60547;48.502;8.996;2022-12-07T01:33:33;97986.41;;;3.04;90.64
72525;BME280;60547;48.502;8.996;2022-12-07T01:36:03;97990.31;;;3.03;90.48
72525;BME280;60547;48.502;8.996;2022-12-07T01:38:30;97993.47;;;3.05;90.49
72525;BME280;60547;48.502;8.996;2022-12-07T01:40:57;97986.41;;;3.04;90.58
72525;BME280;60547;48.502;8.996;2022-12-07T01:43:23;97989.13;;;2.97;90.69
72525;BME280;60547;48.502;8.996;2022-12-07T01:45:50;97988.31;;;2.96;90.75
72525;BME280;60547;48.502;8.996;2022-12-07T01:48:17;97991.88;;;3.00;90.47
72525;BME280;60547;48.502;8.996;2022-12-07T01:50:47;97988.75;;;3.02;90.23
72525;BME280;60547;48.502;8.996;2022-12-07T01:53:13;97988.72;;;2.98;90.33
72525;BME280;60547;48.502;8.996;2022-12-07T01:55:42;97976.16;;;2.97;90.16
72525;BME280;60547;48.502;8.996;2022-12-07T01:58:10;97980.88;;;2.97;90.07
72525;BME280;60547;48.502;8.996;2022-12-07T02:00:36;97988.72;;;2.98;89.85
72525;BME280;60547;48.502;8.996;2022-12-07T02:03:10;97980.88;;;2.97;90.51
72525;BME280;60547;48.502;8.996;2022-12-07T02:05:38;97983.19;;;2.91;90.19
72525;BME280;60547;48.502;8.996;2022-12-07T02:08:05;97984.41;;;2.97;90.48
72525;BME280;60547;48.502;8.996;2022-12-07T02:10:31;97980.84;;;2.93;90.78
72525;BME280;60547;48.502;8.996;2022-12-07T02:15:38;97987.19;;;3.01;90.29
72525;BME280;60547;48.502;8.996;2022-12-07T02:18:22;97980.06;;;2.92;90.64
72525;BME280;60547;48.502;8.996;2022-12-07T02:29:17;97987.13;;;2.94;90.84
72525;BME280;60547;48.502;8.996;2022-12-07T02:32:08;97991.88;;;2.97;90.55
72525;BME280;60547;48.502;8.996;2022-12-07T02:34:55;97985.97;;;2.98;91.22
72525;BME280;60547;48.502;8.996;2022-12-07T02:37:37;97979.31;;;2.99;90.93
72525;BME280;60547;48.502;8.996;2022-12-07T02:40:12;97980.81;;;2.89;90.38
72525;BME280;60547;48.502;8.996;2022-12-07T02:42:46;97974.59;;;3.00;90.65
72525;BME280;60547;48.502;8.996;2022-12-07T02:45:17;97995.06;;;3.06;90.76
72525;BME280;60547;48.502;8.996;2022-12-07T02:47:47;97985.94;;;2.91;90.26
72525;BME280;60547;48.502;8.996;2022-12-07T02:50:13;97995.00;;;2.99;90.21
72525;BME280;60547;48.502;8.996;2022-12-07T02:52:39;97993.06;;;3.03;89.47
72525;BME280;60547;48.502;8.996;2022-12-07T02:55:05;97992.53;;;2.79;89.99
72525;BME280;60547;48.502;8.996;2022-12-07T03:00:24;97980.28;;;2.66;89.87
72525;BME280;60547;48.502;8.996;2022-12-07T03:03:10;97986.84;;;2.51;90.51
72525;BME280;60547;48.502;8.996;2022-12-07T03:08:41;97980.59;;;2.54;89.02
72525;BME280;60547;48.502;8.996;2022-12-07T03:11:37;97983.09;;;2.22;87.60
72525;BME280;60547;48.502;8.996;2022-12-07T03:14:19;97975.50;;;2.05;87.29
72525;BME280;60547;48.502;8.996;2022-12-07T03:17:00;97980.97;;;2.05;89.20
72525;BME280;60547;48.502;8.996;2022-12-07T03:19:28;97978.13;;;1.94;89.64
72525;BME280;60547;48.502;8.996;2022-12-07T03:22:00;97984.28;;;2.24;89.15
72525;BME280;60547;48.502;8.996;2022-12-07T03:24:30;97973.19;;;2.10;89.68
72525;BME280;60547;48.502;8.996;2022-12-07T03:27:06;97967.66;;;2.07;89.11
72525;BME280;60547;48.502;8.996;2022-12-07T03:29:39;97965.78;;;2.14;89.40
72525;BME280;60547;48.502;8.996;2022-12-07T03:32:12;97963.25;;;1.95;90.01
72525;BME280;60547;48.502;8.996;2022-12-07T03:34:46;97965.97;;;1.91;90.49
72525;BME280;60547;48.502;8.996;2022-12-07T03:37:20;97967.53;;;1.92;90.24
72525;BME280;60547;48.502;8.996;2022-12-07T03:42:26;97971.56;;;2.06;91.26
72525;BME280;60547;48.502;8.996;2022-12-07T03:44:52;97963.78;;;2.11;90.90
72525;BME280;60547;48.502;8.996;2022-12-07T03:49:56;97972.91;;;2.22;90.24
72525;BME280;60547;48.502;8.996;2022-12-07T03:52:30;97972.50;;;2.20;89.98
72525;BME280;60547;48.502;8.996;2022-12-07T03:57:47;97972.47;;;2.17;90.16
72525;BME280;60547;48.502;8.996;2022-12-07T04:00:13;97968.09;;;2.12;90.32
72525;BME280;60547;48.502;8.996;2022-12-07T04:02:39;97972.03;;;2.11;90.85
72525;BME280;60547;48.502;8.996;2022-12-07T04:05:05;97971.59;;;2.09;91.15
72525;BME280;60547;48.502;8.996;2022-12-07T04:07:31;97973.25;;;2.17;91.47
72525;BME280;60547;48.502;8.996;2022-12-07T04:09:56;97969.31;;;2.15;90.97
72525;BME280;60547;48.502;8.996;2022-12-07T04:12:22;97968.09;;;2.12;91.49
72525;BME280;60547;48.502;8.996;2022-12-07T04:14:47;97966.47;;;2.04;92.06
72525;BME280;60547;48.502;8.996;2022-12-07T04:17:13;97965.25;;;1.98;92.51
72525;BME280;60547;48.502;8.996;2022-12-07T04:19:38;97953.44;;;1.94;92.30
72525;BME280;60547;48.502;8.996;2022-12-07T04:22:04;97949.47;;;1.88;92.40
72525;BME280;60547;48.502;8.996;2022-12-07T04:24:31;97959.34;;;1.96;91.75
72525;BME280;60547;48.502;8.996;2022-12-07T04:26:57;97969.59;;;2.03;91.64
72525;BME280;60547;48.502;8.996;2022-12-07T04:29:22;97964.88;;;2.03;92.32
72525;BME280;60547;48.502;8.996;2022-12-07T04:31:48;97957.81;;;2.02;92.50
72525;BME280;60547;48.502;8.996;2022-12-07T04:34:15;97961.31;;;1.99;91.44
72525;BME280;60547;48.502;8.996;2022-12-07T04:36:42;97958.59;;;1.99;92.60
72525;BME280;60547;48.502;8.996;2022-12-07T04:39:09;97955.78;;;1.92;92.17
72525;BME280;60547;48.502;8.996;2022-12-07T04:41:38;97957.34;;;1.93;92.47
72525;BME280;60547;48.502;8.996;2022-12-07T04:44:04;97946.72;;;1.88;92.47
72525;BME280;60547;48.502;8.996;2022-12-07T04:46:32;97955.03;;;1.95;92.17
72525;BME280;60547;48.502;8.996;2022-12-07T04:48:58;97955.09;;;2.02;91.86
72525;BME280;60547;48.502;8.996;2022-12-07T04:51:28;97950.69;;;1.94;92.23
72525;BME280;60547;48.502;8.996;2022-12-07T04:53:54;97960.91;;;1.97;92.20
72525;BME280;60547;48.502;8.996;2022-12-07T04:56:21;97960.88;;;1.93;93.13
72525;BME280;60547;48.502;8.996;2022-12-07T04:58:48;97950.22;;;1.85;92.96
72525;BME280;60547;48.502;8.996;2022-12-07T05:01:15;97956.53;;;1.89;92.18
72525;BME280;60547;48.502;8.996;2022-12-07T05:03:41;97946.34;;;1.89;92.26
72525;BME280;60547;48.502;8.996;2022-12-07T05:06:08;97950.28;;;1.92;91.58
72525;BME280;60547;48.502;8.996;2022-12-07T05:08:34;97959.66;;;1.87;91.35
72525;BME280;60547;48.502;8.996;2022-12-07T05:11:01;97953.72;;;1.82;92.48
72525;BME280;60547;48.502;8.996;2022-12-07T05:13:27;97956.53;;;1.89;92.39
72525;BME280;60547;48.502;8.996;2022-12-07T05:15:52;97953.38;;;1.87;91.75
72525;BME280;60547;48.502;8.996;2022-12-07T05:18:17;97948.53;;;1.73;92.23
72525;BME280;60547;48.502;8.996;2022-12-07T05:20:44;97951.66;;;1.72;92.14
72525;BME280;60547;48.502;8.996;2022-12-07T05:23:09;97946.09;;;1.65;92.61
72525;BME280;60547;48.502;8.996;2022-12-07T05:25:35;97940.28;;;1.70;93.15
72525;BME280;60547;48.502;8.996;2022-12-07T05:28:01;97945.69;;;1.63;92.39
72525;BME280;60547;48.502;8.996;2022-12-07T05:30:26;97943.69;;;1.59;92.05
72525;BME280;60547;48.502;8.996;2022-12-07T05:32:52;97943.66;;;1.56;92.40
72525;BME280;60547;48.502;8.996;2022-12-07T05:35:18;97946.03;;;1.57;91.65
72525;BME280;60547;48.502;8.996;2022-12-07T05:37:44;97951.44;;;1.50;91.50
72525;BME280;60547;48.502;8.996;2022-12-07T05:40:11;97948.97;;;1.38;91.98
72525;BME280;60547;48.502;8.996;2022-12-07T05:42:40;97960.28;;;1.37;91.70
72525;BME280;60547;48.502;8.996;2022-12-07T05:45:07;97955.09;;;1.28;92.37
72525;BME280;60547;48.502;8.996;2022-12-07T05:47:32;97957.34;;;1.19;92.26
72525;BME280;60547;48.502;8.996;2022-12-07T05:49:58;97947.88;;;1.13;91.94
72525;BME280;60547;48.502;8.996;2022-12-07T05:52:24;97954.09;;;1.10;91.82
72525;BME280;60547;48.502;8.996;2022-12-07T05:54:49;97953.28;;;1.06;91.20
72525;BME280;60547;48.502;8.996;2022-12-07T05:57:14;97940.72;;;1.05;91.17
72525;BME280;60547;48.502;8.996;2022-12-07T05:59:40;97947.78;;;1.06;91.24
72525;BME280;60547;48.502;8.996;2022-12-07T06:02:08;97943.38;;;0.68;92.56
72525;BME280;60547;48.502;8.996;2022-12-07T06:04:39;97948.75;;;0.60;93.83
72525;BME280;60547;48.502;8.996;2022-12-07T06:07:05;97951.63;;;0.71;93.26
72525;BME280;60547;48.502;8.996;2022-12-07T06:09:32;97950.53;;;0.76;93.25
72525;BME280;60547;48.502;8.996;2022-12-07T06:11:58;97937.31;;;0.81;92.53
72525;BME280;60547;48.502;8.996;2022-12-07T06:14:43;97946.34;;;0.85;92.33
72525;BME280;60547;48.502;8.996;2022-12-07T06:17:08;97938.03;;;0.78;92.83
72525;BME280;60547;48.502;8.996;2022-12-07T06:19:34;97939.56;;;0.76;92.68
72525;BME280;60547;48.502;8.996;2022-12-07T06:22:00;97946.16;;;0.71;92.31
72525;BME280;60547;48.502;8.996;2022-12-07T06:24:26;97935.47;;;0.62;92.14
72525;BME280;60547;48.502;8.996;2022-12-07T06:26:52;97940.28;;;0.69;91.86
72525;BME280;60547;48.502;8.996;2022-12-07T06:29:18;97946.47;;;0.66;91.75
72525;BME280;60547;48.502;8.996;2022-12-07T06:31:43;97946.75;;;0.57;91.59
72525;BME280;60547;48.502;8.996;2022-12-07T06:34:12;97955.34;;;0.56;92.26
72525;BME280;60547;48.502;8.996;2022-12-07T06:36:38;97956.38;;;0.48;91.88
72525;BME280;60547;48.502;8.996;2022-12-07T06:39:04;97950.88;;;0.44;92.49
72525;BME280;60547;48.502;8.996;2022-12-07T06:41:30;97968.59;;;0.54;92.47
72525;BME280;60547;48.502;8.996;2022-12-07T06:43:56;97950.06;;;0.44;92.13
72525;BME280;60547;48.502;8.996;2022-12-07T06:46:22;97959.50;;;0.46;92.68
72525;BME280;60547;48.502;8.996;2022-12-07T06:48:47;97961.75;;;0.41;92.72
72525;BME280;60547;48.502;8.996;2022-12-07T06:51:13;97969.66;;;0.46;92.33
72525;BME280;60547;48.502;8.996;2022-12-07T06:53:38;97969.72;;;0.49;92.49
72525;BME280;60547;48.502;8.996;2022-12-07T06:56:04;97967.34;;;0.48;92.80
72525;BME280;60547;48.502;8.996;2022-12-07T06:58:30;97967.34;;;0.48;92.80
72525;BME280;60547;48.502;8.996;2022-12-07T07:00:55;97954.38;;;0.45;92.63
72525;BME280;60547;48.502;8.996;2022-12-07T07:03:21;97955.34;;;0.56;92.74
72525;BME280;60547;48.502;8.996;2022-12-07T07:05:46;97966.06;;;0.68;92.08
72525;BME280;60547;48.502;8.996;2022-12-07T07:08:12;97971.28;;;0.77;92.74
72525;BME280;60547;48.502;8.996;2022-12-07T07:10:38;97978.69;;;0.76;92.59
72525;BME280;60547;48.502;8.996;2022-12-07T07:13:04;97976.66;;;0.70;92.50
72525;BME280;60547;48.502;8.996;2022-12-07T07:15:32;97988.81;;;0.72;93.20
72525;BME280;60547;48.502;8.996;2022-12-07T07:17:57;97983.75;;;0.74;93.25
72525;BME280;60547;48.502;8.996;2022-12-07T07:20:23;97995.66;;;0.85;93.37
72525;BME280;60547;48.502;8.996;2022-12-07T07:22:48;97987.44;;;0.85;93.26
72525;BME280;60547;48.502;8.996;2022-12-07T07:25:14;97985.13;;;0.87;93.11
72525;BME280;60547;48.502;8.996;2022-12-07T07:27:40;97982.78;;;0.89;93.13
72525;BME280;60547;48.502;8.996;2022-12-07T07:30:06;97988.28;;;0.89;93.37
72525;BME280;60547;48.502;8.996;2022-12-07T07:32:32;97983.97;;;0.88;93.36
72525;BME280;60547;48.502;8.996;2022-12-07T07:34:57;97991.47;;;0.95;93.71
72525;BME280;60547;48.502;8.996;2022-12-07T07:37:23;97982.09;;;0.96;93.77
72525;BME280;60547;48.502;8.996;2022-12-07T07:39:48;97983.72;;;1.01;94.21
72525;BME280;60547;48.502;8.996;2022-12-07T07:42:14;97992.50;;;1.13;93.74
72525;BME280;60547;48.502;8.996;2022-12-07T07:44:40;97997.34;;;1.23;94.31
72525;BME280;60547;48.502;8.996;2022-12-07T07:47:05;97992.28;;;1.25;93.80
72525;BME280;60547;48.502;8.996;2022-12-07T07:49:31;97990.00;;;1.31;93.60
72525;BME280;60547;48.502;8.996;2022-12-07T07:51:56;97986.84;;;1.29;92.99
72525;BME280;60547;48.502;8.996;2022-12-07T07:54:22;97990.50;;;1.40;93.28
72525;BME280;60547;48.502;8.996;2022-12-07T07:56:47;97989.78;;;1.47;93.16
72525;BME280;60547;48.502;8.996;2022-12-07T07:59:12;97999.66;;;1.55;93.13
72525;BME280;60547;48.502;8.996;2022-12-07T08:01:39;97996.50;;;1.53;92.18
72525;BME280;60547;48.502;8.996;2022-12-07T08:04:06;98011.44;;;1.55;92.18
72525;BME280;60547;48.502;8.996;2022-12-07T08:06:32;98004.34;;;1.54;92.52
72525;BME280;60547;48.502;8.996;2022-12-07T08:08:57;98010.69;;;1.58;91.90
72525;BME280;60547;48.502;8.996;2022-12-07T08:11:23;98003.25;;;1.59;91.63
72525;BME280;60547;48.502;8.996;2022-12-07T08:13:49;97996.50;;;1.53;91.68
72525;BME280;60547;48.502;8.996;2022-12-07T08:16:15;97996.94;;;1.55;92.19
72525;BME280;60547;48.502;8.996;2022-12-07T08:18:41;98002.81;;;1.57;92.12
72525;BME280;60547;48.502;8.996;2022-12-07T08:21:11;98007.94;;;1.58;91.25
72525;BME280;60547;48.502;8.996;2022-12-07T08:23:37;97994.94;;;1.52;91.70
72525;BME280;60547;48.502;8.996;2022-12-07T08:26:05;98000.47;;;1.55;91.84
72525;BME280;60547;48.502;8.996;2022-12-07T08:28:31;98000.53;;;1.63;91.97
72525;BME280;60547;48.502;8.996;2022-12-07T08:31:07;98004.84;;;1.64;92.42
72525;BME280;60547;48.502;8.996;2022-12-07T08:33:33;98012.00;;;1.72;92.82
72525;BME280;60547;48.502;8.996;2022-12-07T08:36:02;98007.31;;;1.72;92.77
72525;BME280;60547;48.502;8.996;2022-12-07T08:38:28;98009.34;;;1.79;92.00
72525;BME280;60547;48.502;8.996;2022-12-07T08:40:55;98008.25;;;1.87;92.33
72525;BME280;60547;48.502;8.996;2022-12-07T08:43:20;98005.09;;;1.85;92.53
72525;BME280;60547;48.502;8.996;2022-12-07T08:45:48;98017.75;;;1.97;93.02
72525;BME280;60547;48.502;8.996;2022-12-07T08:48:14;98005.16;;;1.92;93.00
72525;BME280;60547;48.502;8.996;2022-12-07T08:50:42;97985.94;;;1.92;92.67
72525;BME280;60547;48.502;8.996;2022-12-07T08:53:07;98001.28;;;1.97;92.61
72525;BME280;60547;48.502;8.996;2022-12-07T08:55:33;98006.88;;;2.07;92.04
72525;BME280;60547;48.502;8.996;2022-12-07T08:58:00;98000.91;;;1.98;92.48
72525;BME280;60547;48.502;8.996;2022-12-07T09:00:27;98008.44;;;2.08;91.98
72525;BME280;60547;48.502;8.996;2022-12-07T09:02:53;98007.41;;;2.23;91.57
72525;BME280;60547;48.502;8.996;2022-12-07T09:05:19;98010.56;;;2.25;91.09
72525;BME280;60547;48.502;8.996;2022-12-07T09:07:46;98011.00;;;2.31;91.70
72525;BME280;60547;48.502;8.996;2022-12-07T09:10:13;98016.59;;;2.42;91.12
72525;BME280;60547;48.502;8.996;2022-12-07T09:12:38;98011.06;;;2.38;91.61
72525;BME280;60547;48.502;8.996;2022-12-07T09:15:04;98014.72;;;2.53;91.68
72525;BME280;60547;48.502;8.996;2022-12-07T09:17:32;98020.66;;;2.58;91.36
72525;BME280;60547;48.502;8.996;2022-12-07T09:19:58;98006.50;;;2.56;90.41
72525;BME280;60547;48.502;8.996;2022-12-07T09:22:28;98014.78;;;2.60;90.54
72525;BME280;60547;48.502;8.996;2022-12-07T09:24:54;98016.81;;;2.70;90.39
72525;BME280;60547;48.502;8.996;2022-12-07T09:27:19;98010.16;;;2.71;89.21
72525;BME280;60547;48.502;8.996;2022-12-07T09:29:45;98016.34;;;2.61;89.04
72525;BME280;60547;48.502;8.996;2022-12-07T09:32:10;98006.59;;;2.67;88.93
72525;BME280;60547;48.502;8.996;2022-12-07T09:34:36;98021.53;;;2.73;88.12
72525;BME280;60547;48.502;8.996;2022-12-07T09:37:01;98008.63;;;2.77;88.36
72525;BME280;60547;48.502;8.996;2022-12-07T09:39:28;97999.63;;;2.80;87.98
72525;BME280;60547;48.502;8.996;2022-12-07T09:41:54;97987.84;;;2.83;88.08
72525;BME280;60547;48.502;8.996;2022-12-07T09:44:26;98009.84;;;2.83;87.85
72525;BME280;60547;48.502;8.996;2022-12-07T09:46:52;98002.81;;;2.89;87.91
72525;BME280;60547;48.502;8.996;2022-12-07T09:49:23;98006.41;;;3.01;87.99
72525;BME280;60547;48.502;8.996;2022-12-07T09:52:01;97997.34;;;2.93;87.98
72525;BME280;60547;48.502;8.996;2022-12-07T09:54:28;97989.47;;;2.91;87.37
72525;BME280;60547;48.502;8.996;2022-12-07T09:56:54;97993.06;;;3.03;87.55
72525;BME280;60547;48.502;8.996;2022-12-07T09:59:20;97993.47;;;3.05;87.69
72525;BME280;60547;48.502;8.996;2022-12-07T10:01:49;97987.97;;;3.05;86.44
72525;BME280;60547;48.502;8.996;2022-12-07T10:04:19;97974.59;;;3.00;85.33
72525;BME280;60547;48.502;8.996;2022-12-07T10:06:46;97986.41;;;3.04;85.52
72525;BME280;60547;48.502;8.996;2022-12-07T10:09:15;97985.63;;;3.07;84.55
72525;BME280;60547;48.502;8.996;2022-12-07T10:12:06;97984.94;;;3.24;84.06
72525;BME280;60547;48.502;8.996;2022-12-07T10:14:36;97975.53;;;3.32;83.70
72525;BME280;60547;48.502;8.996;2022-12-07T10:17:02;97965.69;;;3.24;83.29
72525;BME280;60547;48.502;8.996;2022-12-07T10:19:32;97969.28;;;3.35;82.80
72525;BME280;60547;48.502;8.996;2022-12-07T10:22:04;97975.59;;;3.43;84.00
72525;BME280;60547;48.502;8.996;2022-12-07T10:24:30;97961.03;;;3.39;83.90
72525;BME280;60547;48.502;8.996;2022-12-07T10:26:56;97971.22;;;3.35;83.65
72525;BME280;60547;48.502;8.996;2022-12-07T10:29:31;97966.53;;;3.39;82.08
72525;BME280;60547;48.502;8.996;2022-12-07T10:39:43;97954.41;;;3.50;81.29
72525;BME280;60547;48.502;8.996;2022-12-07T10:42:24;97963.06;;;3.60;82.16
72525;BME280;60547;48.502;8.996;2022-12-07T10:45:13;97958.75;;;3.62;81.77
72525;BME280;60547;48.502;8.996;2022-12-07T10:59:39;97930.09;;;3.74;79.63
72525;BME280;60547;48.502;8.996;2022-12-07T11:07:43;97921.41;;;3.54;78.47
72525;BME280;60547;48.502;8.996;2022-12-07T11:10:18;97915.13;;;3.61;80.26
72525;BME280;60547;48.502;8.996;2022-12-07T11:21:23;97926.19;;;3.96;78.35
72525;BME280;60547;48.502;8.996;2022-12-07T11:24:03;97920.28;;;4.01;79.37
72525;BME280;60547;48.502;8.996;2022-12-07T11:34:56;97906.91;;;4.03;77.62
72525;BME280;60547;48.502;8.996;2022-12-07T11:37:33;97905.72;;;3.83;78.02
72525;BME280;60547;48.502;8.996;2022-12-07T11:40:14;97888.81;;;3.95;78.68
72525;BME280;60547;48.502;8.996;2022-12-07T11:42:46;97889.59;;;3.92;78.66
72525;BME280;60547;48.502;8.996;2022-12-07T11:45:29;97895.91;;;3.96;76.84
72525;BME280;60547;48.502;8.996;2022-12-07T11:48:05;97891.56;;;4.02;78.32
72525;BME280;60547;48.502;8.996;2022-12-07T11:50:48;97887.63;;;4.17;77.40
72525;BME280;60547;48.502;8.996;2022-12-07T11:53:21;97879.38;;;4.07;78.26
72525;BME280;60547;48.502;8.996;2022-12-07T11:55:56;97880.16;;;4.14;77.49
72525;BME280;60547;48.502;8.996;2022-12-07T12:00:55;97879.78;;;3.91;78.00
72525;BME280;60547;48.502;8.996;2022-12-07T12:03:34;97874.25;;;4.16;77.71
72525;BME280;60547;48.502;8.996;2022-12-07T12:06:02;97871.91;;;4.21;76.34
72525;BME280;60547;48.502;8.996;2022-12-07T12:08:33;97845.56;;;4.13;77.66
72525;BME280;60547;48.502;8.996;2022-12-07T12:11:13;97864.84;;;4.06;78.18
72525;BME280;60547;48.502;8.996;2022-12-07T12:22:19;97856.94;;;4.26;76.09
72525;BME280;60547;48.502;8.996;2022-12-07T12:24:50;97857.72;;;4.34;76.70
72525;BME280;60547;48.502;8.996;2022-12-07T12:27:28;97853.78;;;4.42;76.54
72525;BME280;60547;48.502;8.996;2022-12-07T12:29:59;97837.28;;;4.17;75.85
72525;BME280;60547;48.502;8.996;2022-12-07T12:32:39;97839.25;;;4.24;77.06
72525;BME280;60547;48.502;8.996;2022-12-07T12:35:26;97836.84;;;4.40;76.97
72525;BME280;60547;48.502;8.996;2022-12-07T12:37:52;97825.44;;;4.41;77.10
72525;BME280;60547;48.502;8.996;2022-12-07T12:42:47;97834.84;;;4.54;76.20
72525;BME280;60547;48.502;8.996;2022-12-07T12:45:32;97824.22;;;4.57;76.79
72525;BME280;60547;48.502;8.996;2022-12-07T12:48:02;97822.25;;;4.53;76.99
72525;BME280;60547;48.502;8.996;2022-12-07T12:50:37;97832.47;;;4.60;76.52
72525;BME280;60547;48.502;8.996;2022-12-07T12:53:21;97829.78;;;4.32;77.35
72525;BME280;60547;48.502;8.996;2022-12-07T12:56:11;97836.44;;;4.45;75.67
72525;BME280;60547;48.502;8.996;2022-12-07T12:58:40;97819.94;;;4.31;76.18
72525;BME280;60547;48.502;8.996;2022-12-07T13:03:55;97819.94;;;4.41;76.59
72525;BME280;60547;48.502;8.996;2022-12-07T13:06:35;97812.03;;;4.47;77.19
72525;BME280;60547;48.502;8.996;2022-12-07T13:09:01;97809.69;;;4.49;76.43
72525;BME280;60547;48.502;8.996;2022-12-07T13:13:52;97797.13;;;4.34;75.25
72525;BME280;60547;48.502;8.996;2022-12-07T13:18:43;97797.16;;;4.27;77.06
72525;BME280;60547;48.502;8.996;2022-12-07T13:26:18;97793.97;;;4.32;76.15
72525;BME280;60547;48.502;8.996;2022-12-07T13:31:44;97783.78;;;4.25;77.07
72525;BME280;60547;48.502;8.996;2022-12-07T13:34:46;97789.63;;;4.38;78.97
72525;BME280;60547;48.502;8.996;2022-12-07T13:39:50;97786.09;;;4.37;78.04
72525;BME280;60547;48.502;8.996;2022-12-07T13:42:21;97790.78;;;4.44;77.13
72525;BME280;60547;48.502;8.996;2022-12-07T13:44:49;97788.06;;;4.40;77.63
72525;BME280;60547;48.502;8.996;2022-12-07T13:47:16;97772.72;;;4.36;76.69
72525;BME280;60547;48.502;8.996;2022-12-07T13:50:00;97777.06;;;4.37;77.21
72525;BME280;60547;48.502;8.996;2022-12-07T13:52:28;97782.94;;;4.42;77.18
72525;BME280;60547;48.502;8.996;2022-12-07T13:54:59;97767.25;;;4.29;78.58
72525;BME280;60547;48.502;8.996;2022-12-07T13:57:25;97775.09;;;4.34;78.18
72525;BME280;60547;48.502;8.996;2022-12-07T13:59:52;97762.94;;;4.20;78.68
72525;BME280;60547;48.502;8.996;2022-12-07T14:02:27;97772.75;;;4.29;77.06
72525;BME280;60547;48.502;8.996;2022-12-07T14:05:24;97772.72;;;4.32;78.04
72525;BME280;60547;48.502;8.996;2022-12-07T14:08:03;97782.56;;;4.30;77.84
72525;BME280;60547;48.502;8.996;2022-12-07T14:13:44;97779.41;;;4.38;77.81
72525;BME280;60547;48.502;8.996;2022-12-07T14:16:28;97770.38;;;4.31;78.84
72525;BME280;60547;48.502;8.996;2022-12-07T14:18:56;97774.31;;;4.30;79.78
72525;BME280;60547;48.502;8.996;2022-12-07T14:21:24;97778.28;;;4.18;79.73
72525;BME280;60547;48.502;8.996;2022-12-07T14:24:12;97781.03;;;4.18;79.96
72525;BME280;60547;48.502;8.996;2022-12-07T14:26:41;97784.19;;;4.09;81.06
72525;BME280;60547;48.502;8.996;2022-12-07T14:29:29;97777.91;;;4.09;81.17
72525;BME280;60547;48.502;8.996;2022-12-07T14:32:17;97766.91;;;3.98;79.87
72525;BME280;60547;48.502;8.996;2022-12-07T14:35:07;97769.66;;;4.02;80.60
72525;BME280;60547;48.502;8.996;2022-12-07T14:37:33;97772.81;;;3.97;80.17
72525;BME280;60547;48.502;8.996;2022-12-07T14:39:59;97781.44;;;4.09;80.89
72525;BME280;60547;48.502;8.996;2022-12-07T14:42:27;97781.44;;;4.09;78.16
72525;BME280;60547;48.502;8.996;2022-12-07T14:44:55;97773.59;;;3.97;79.84
72525;BME280;60547;48.502;8.996;2022-12-07T14:47:20;97774.00;;;3.92;79.83
72525;BME280;60547;48.502;8.996;2022-12-07T14:49:46;97777.94;;;3.98;80.43
72525;BME280;60547;48.502;8.996;2022-12-07T14:52:16;97773.19;;;4.02;79.45
72525;BME280;60547;48.502;8.996;2022-12-07T14:54:42;97771.28;;;3.81;79.99
72525;BME280;60547;48.502;8.996;2022-12-07T14:57:11;97780.69;;;3.95;80.24
72525;BME280;60547;48.502;8.996;2022-12-07T14:59:37;97775.56;;;3.93;79.77
72525;BME280;60547;48.502;8.996;2022-12-07T15:02:03;97771.66;;;3.94;79.83